Time Latitude Longitude Accuracy (66% radius in meters) Altitude (meters) Speed (km/hour) Bearing (degrees) Battery (%) GPS flag
10:14:37 56.387832 43.737097 22 85.5 0 195.64999389648 76 1 delete
10:14:34 56.387837 43.737100 21.200000762939 85.5 0 195.64999389648 76 1 delete
10:14:25 56.387912 43.737190 20.10000038147 80.4 0 214.17999267578 76 1 delete
10:14:15 56.387912 43.737190 28 80.4 0 214.17999267578 76 1 delete
10:14:11 56.387932 43.737200 31.5 78.4 0 214.17999267578 76 1 delete
10:14:05 56.388018 43.737272 46.799999237061 73.3 0 291.58999633789 76 1 delete
10:13:59 56.388285 43.737532 85.400001525879 64.4 0 34.319999694824 76 1 delete
11:13:54 56.387660 43.737268 57.299999237061 76 0 34.319999694824 76 0 delete
10:13:41 56.387660 43.737268 57.299999237061 76 0 34.319999694824 76 1 delete
10:13:31 56.387747 43.737212 55.799999237061 75.9 0 4.1900000572205 76 1 delete
11:13:22 56.387740 43.737125 30.799999237061 75.8 0 202.58000183105 76 0 delete
11:13:11 56.387740 43.737125 30.799999237061 75.8 0 202.58000183105 76 0 delete
11:13:00 56.387740 43.737125 30.799999237061 75.8 0 202.58000183105 76 0 delete
10:12:45 56.387747 43.737212 55.099998474121 75.9 0 4.1900000572205 76 1 delete
11:12:39 56.387740 43.737125 30.799999237061 75.8 0 202.58000183105 76 0 delete
11:12:28 56.387740 43.737125 30.799999237061 75.8 0 202.58000183105 76 0 delete
11:12:17 56.387740 43.737125 30.799999237061 75.8 0 202.58000183105 76 0 delete
10:12:05 56.387747 43.737212 33.099998474121 75.9 0 4.1900000572205 76 1 delete
10:11:55 56.387747 43.737212 28.700000762939 75.9 0 4.1900000572205 76 1 delete
10:11:43 56.387697 43.737205 25.5 75.7 0 81.209999084473 76 1 delete
10:11:32 56.387703 43.737213 25.5 75.7 0 81.209999084473 76 1 delete
10:11:21 56.387717 43.737110 24.700000762939 75.8 0 186.36999511719 76 1 delete
10:11:11 56.387717 43.737110 26.60000038147 75.8 0 186.36999511719 76 1 delete
10:10:59 56.387717 43.737110 24.700000762939 75.8 0 186.36999511719 76 1 delete
10:10:49 56.387717 43.737110 21.60000038147 75.8 0 186.36999511719 76 1 delete
10:10:39 56.387717 43.737110 22.60000038147 75.8 0 186.36999511719 76 1 delete
10:10:27 56.387717 43.737110 28 75.8 0 186.36999511719 76 1 delete
10:10:17 56.387717 43.737110 25.10000038147 75.8 0 186.36999511719 76 1 delete
10:10:05 56.387717 43.737110 27.5 75.8 0 186.36999511719 76 1 delete
10:09:55 56.387717 43.737110 30 75.8 0 186.36999511719 76 1 delete
10:09:47 56.387740 43.737125 30.799999237061 75.8 0 202.58000183105 76 1 delete
11:09:45 56.387808 43.737260 35.900001525879 76.3 0 39.759998321533 76 0 delete
10:09:31 56.387873 43.737223 35.299999237061 76.2 0 5.6999998092651 76 1 delete
10:09:23 56.387873 43.737223 32.900001525879 76.2 0 5.6999998092651 76 1 delete
10:09:11 56.387873 43.737223 34.200000762939 76.2 0 5.6999998092651 76 1 delete
10:09:01 56.387868 43.737242 34.400001525879 76.2 0 13.460000038147 76 1 delete
10:08:55 56.387808 43.737260 35.900001525879 76.3 0 39.759998321533 76 1 delete
10:08:49 56.387707 43.737142 34.5 76.4 0 19.309999465942 76 1 delete
10:08:39 56.387707 43.737142 26.799999237061 76.4 0 19.309999465942 76 1 delete
10:08:27 56.387707 43.737142 22.39999961853 76.4 0 19.309999465942 76 1 delete
10:08:17 56.387707 43.737142 21.39999961853 76.4 0 19.309999465942 76 1 delete
10:08:05 56.387653 43.737185 22.60000038147 76.7 0 125.33999633789 78 1 delete
10:07:53 56.387653 43.737185 27.5 76.7 0 125.33999633789 78 1 delete
10:07:43 56.387653 43.737185 27.39999961853 76.7 0 125.33999633789 78 1 delete
10:07:31 56.387653 43.737185 29.89999961853 76.7 0 125.33999633789 78 1 delete
10:07:21 56.387653 43.737183 33.400001525879 76.8 0 125.33999633789 78 1 delete
11:07:11 56.387757 43.737050 26.200000762939 77 0 349.85998535156 78 0 delete
10:06:59 56.387750 43.737063 32.099998474121 77 0 346.26998901367 78 1 delete
10:06:49 56.387750 43.737063 29.89999961853 77 0 346.26998901367 78 1 delete
10:06:37 56.387750 43.737063 24.700000762939 77 0 346.26998901367 78 1 delete